sensor_id;sensor_type;location;lat;lon;timestamp;P1;durP1;ratioP1;P2;durP2;ratioP2
21564;SDS011;10943;48.738;9.320;2022-08-19T00:02:13;13.63;;;11.80;;
21564;SDS011;10943;48.738;9.320;2022-08-19T00:04:41;13.20;;;11.77;;
21564;SDS011;10943;48.738;9.320;2022-08-19T00:07:08;13.55;;;12.15;;
21564;SDS011;10943;48.738;9.320;2022-08-19T00:09:35;13.80;;;12.40;;
21564;SDS011;10943;48.738;9.320;2022-08-19T00:12:03;14.18;;;12.73;;
21564;SDS011;10943;48.738;9.320;2022-08-19T00:14:31;15.75;;;13.57;;
21564;SDS011;10943;48.738;9.320;2022-08-19T00:16:58;15.10;;;13.50;;
21564;SDS011;10943;48.738;9.320;2022-08-19T00:19:26;15.68;;;13.95;;
21564;SDS011;10943;48.738;9.320;2022-08-19T00:21:55;15.93;;;14.32;;
21564;SDS011;10943;48.738;9.320;2022-08-19T00:24:22;15.48;;;12.85;;
21564;SDS011;10943;48.738;9.320;2022-08-19T00:26:51;15.00;;;13.25;;
21564;SDS011;10943;48.738;9.320;2022-08-19T00:29:20;16.85;;;14.00;;
21564;SDS011;10943;48.738;9.320;2022-08-19T00:31:50;15.18;;;13.50;;
21564;SDS011;10943;48.738;9.320;2022-08-19T00:34:24;17.08;;;14.13;;
21564;SDS011;10943;48.738;9.320;2022-08-19T00:36:54;15.73;;;13.80;;
21564;SDS011;10943;48.738;9.320;2022-08-19T00:39:23;17.10;;;13.88;;
21564;SDS011;10943;48.738;9.320;2022-08-19T00:41:51;16.48;;;14.65;;
21564;SDS011;10943;48.738;9.320;2022-08-19T00:44:20;15.88;;;13.85;;
21564;SDS011;10943;48.738;9.320;2022-08-19T00:46:54;19.10;;;14.93;;
21564;SDS011;10943;48.738;9.320;2022-08-19T00:49:31;17.73;;;14.93;;
21564;SDS011;10943;48.738;9.320;2022-08-19T00:52:23;16.55;;;14.82;;
21564;SDS011;10943;48.738;9.320;2022-08-19T00:55:00;16.10;;;14.40;;
21564;SDS011;10943;48.738;9.320;2022-08-19T00:57:40;17.20;;;15.13;;
21564;SDS011;10943;48.738;9.320;2022-08-19T01:00:13;16.00;;;14.30;;
21564;SDS011;10943;48.738;9.320;2022-08-19T01:02:46;16.25;;;14.43;;
21564;SDS011;10943;48.738;9.320;2022-08-19T01:05:16;15.35;;;13.68;;
21564;SDS011;10943;48.738;9.320;2022-08-19T01:07:57;15.57;;;13.98;;
21564;SDS011;10943;48.738;9.320;2022-08-19T01:10:30;15.70;;;14.10;;
21564;SDS011;10943;48.738;9.320;2022-08-19T01:13:08;15.82;;;14.13;;
21564;SDS011;10943;48.738;9.320;2022-08-19T01:15:48;15.45;;;13.85;;
21564;SDS011;10943;48.738;9.320;2022-08-19T01:18:24;16.05;;;14.38;;
21564;SDS011;10943;48.738;9.320;2022-08-19T01:20:55;16.38;;;14.50;;
21564;SDS011;10943;48.738;9.320;2022-08-19T01:23:30;17.15;;;14.65;;
21564;SDS011;10943;48.738;9.320;2022-08-19T01:26:10;18.67;;;14.68;;
21564;SDS011;10943;48.738;9.320;2022-08-19T01:28:45;16.58;;;13.85;;
21564;SDS011;10943;48.738;9.320;2022-08-19T01:31:19;16.67;;;13.80;;
21564;SDS011;10943;48.738;9.320;2022-08-19T01:33:54;16.05;;;13.82;;
21564;SDS011;10943;48.738;9.320;2022-08-19T01:39:06;14.85;;;13.35;;
21564;SDS011;10943;48.738;9.320;2022-08-19T01:41:39;15.50;;;13.45;;
21564;SDS011;10943;48.738;9.320;2022-08-19T01:44:07;16.15;;;14.20;;
21564;SDS011;10943;48.738;9.320;2022-08-19T01:46:45;15.65;;;13.48;;
21564;SDS011;10943;48.738;9.320;2022-08-19T01:49:15;15.73;;;13.20;;
21564;SDS011;10943;48.738;9.320;2022-08-19T01:51:48;15.15;;;12.88;;
21564;SDS011;10943;48.738;9.320;2022-08-19T01:54:17;16.52;;;14.20;;
21564;SDS011;10943;48.738;9.320;2022-08-19T01:56:54;14.05;;;11.90;;
21564;SDS011;10943;48.738;9.320;2022-08-19T01:59:37;16.90;;;13.50;;
21564;SDS011;10943;48.738;9.320;2022-08-19T02:02:08;15.50;;;13.70;;
21564;SDS011;10943;48.738;9.320;2022-08-19T02:04:36;16.40;;;14.30;;
21564;SDS011;10943;48.738;9.320;2022-08-19T02:07:05;16.27;;;13.27;;
21564;SDS011;10943;48.738;9.320;2022-08-19T02:09:34;14.88;;;13.27;;
21564;SDS011;10943;48.738;9.320;2022-08-19T02:12:03;15.40;;;13.52;;
21564;SDS011;10943;48.738;9.320;2022-08-19T02:14:33;16.15;;;13.65;;
21564;SDS011;10943;48.738;9.320;2022-08-19T02:17:02;15.57;;;13.48;;
21564;SDS011;10943;48.738;9.320;2022-08-19T02:19:30;16.58;;;14.07;;
21564;SDS011;10943;48.738;9.320;2022-08-19T02:22:06;16.85;;;14.07;;
21564;SDS011;10943;48.738;9.320;2022-08-19T02:24:33;19.50;;;14.88;;
21564;SDS011;10943;48.738;9.320;2022-08-19T02:27:01;16.73;;;13.75;;
21564;SDS011;10943;48.738;9.320;2022-08-19T02:29:28;15.70;;;13.95;;
21564;SDS011;10943;48.738;9.320;2022-08-19T02:31:56;16.83;;;14.90;;
21564;SDS011;10943;48.738;9.320;2022-08-19T02:34:23;18.15;;;14.73;;
21564;SDS011;10943;48.738;9.320;2022-08-19T02:36:51;18.92;;;15.40;;
21564;SDS011;10943;48.738;9.320;2022-08-19T02:39:18;15.32;;;13.45;;
21564;SDS011;10943;48.738;9.320;2022-08-19T02:41:46;18.48;;;15.52;;
21564;SDS011;10943;48.738;9.320;2022-08-19T02:44:13;19.40;;;16.00;;
21564;SDS011;10943;48.738;9.320;2022-08-19T02:46:56;17.63;;;15.65;;
21564;SDS011;10943;48.738;9.320;2022-08-19T02:49:24;18.52;;;16.33;;
21564;SDS011;10943;48.738;9.320;2022-08-19T02:51:51;19.27;;;16.05;;
21564;SDS011;10943;48.738;9.320;2022-08-19T02:54:18;19.08;;;15.82;;
21564;SDS011;10943;48.738;9.320;2022-08-19T02:56:45;17.98;;;16.10;;
21564;SDS011;10943;48.738;9.320;2022-08-19T02:59:13;18.88;;;16.88;;
21564;SDS011;10943;48.738;9.320;2022-08-19T03:01:40;18.92;;;16.95;;
21564;SDS011;10943;48.738;9.320;2022-08-19T03:04:10;21.42;;;16.30;;
21564;SDS011;10943;48.738;9.320;2022-08-19T03:06:43;19.52;;;16.52;;
21564;SDS011;10943;48.738;9.320;2022-08-19T03:09:13;18.83;;;16.63;;
21564;SDS011;10943;48.738;9.320;2022-08-19T03:11:42;20.05;;;17.33;;
21564;SDS011;10943;48.738;9.320;2022-08-19T03:14:09;19.50;;;16.42;;
21564;SDS011;10943;48.738;9.320;2022-08-19T03:16:40;21.42;;;17.85;;
21564;SDS011;10943;48.738;9.320;2022-08-19T03:19:18;23.00;;;18.88;;
21564;SDS011;10943;48.738;9.320;2022-08-19T03:21:50;21.95;;;18.15;;
21564;SDS011;10943;48.738;9.320;2022-08-19T03:24:19;23.10;;;18.30;;
21564;SDS011;10943;48.738;9.320;2022-08-19T03:26:48;21.48;;;17.75;;
21564;SDS011;10943;48.738;9.320;2022-08-19T03:29:24;20.75;;;17.08;;
21564;SDS011;10943;48.738;9.320;2022-08-19T03:31:58;22.38;;;18.83;;
21564;SDS011;10943;48.738;9.320;2022-08-19T03:34:30;23.35;;;18.30;;
21564;SDS011;10943;48.738;9.320;2022-08-19T03:37:03;22.33;;;18.77;;
21564;SDS011;10943;48.738;9.320;2022-08-19T03:39:37;21.73;;;18.55;;
21564;SDS011;10943;48.738;9.320;2022-08-19T03:42:09;21.48;;;18.52;;
21564;SDS011;10943;48.738;9.320;2022-08-19T03:44:57;23.35;;;19.65;;
21564;SDS011;10943;48.738;9.320;2022-08-19T03:47:25;21.50;;;18.30;;
21564;SDS011;10943;48.738;9.320;2022-08-19T03:49:52;22.40;;;18.67;;
21564;SDS011;10943;48.738;9.320;2022-08-19T03:52:19;23.33;;;19.77;;
21564;SDS011;10943;48.738;9.320;2022-08-19T03:54:46;21.63;;;18.58;;
21564;SDS011;10943;48.738;9.320;2022-08-19T03:57:14;23.98;;;20.05;;
21564;SDS011;10943;48.738;9.320;2022-08-19T03:59:41;24.10;;;20.45;;
21564;SDS011;10943;48.738;9.320;2022-08-19T04:02:09;22.45;;;19.83;;
21564;SDS011;10943;48.738;9.320;2022-08-19T04:04:40;22.38;;;19.48;;
21564;SDS011;10943;48.738;9.320;2022-08-19T04:07:11;22.83;;;20.10;;
21564;SDS011;10943;48.738;9.320;2022-08-19T04:09:48;21.33;;;19.02;;
21564;SDS011;10943;48.738;9.320;2022-08-19T04:12:17;24.35;;;20.42;;
21564;SDS011;10943;48.738;9.320;2022-08-19T04:14:46;25.73;;;21.15;;
21564;SDS011;10943;48.738;9.320;2022-08-19T04:17:14;21.80;;;18.90;;
21564;SDS011;10943;48.738;9.320;2022-08-19T04:19:41;24.70;;;20.50;;
21564;SDS011;10943;48.738;9.320;2022-08-19T04:22:09;24.52;;;20.10;;
21564;SDS011;10943;48.738;9.320;2022-08-19T04:24:37;22.67;;;19.42;;
21564;SDS011;10943;48.738;9.320;2022-08-19T04:27:05;23.60;;;20.15;;
21564;SDS011;10943;48.738;9.320;2022-08-19T04:29:33;23.52;;;20.80;;
21564;SDS011;10943;48.738;9.320;2022-08-19T04:32:00;27.08;;;21.35;;
21564;SDS011;10943;48.738;9.320;2022-08-19T04:34:35;24.48;;;21.55;;
21564;SDS011;10943;48.738;9.320;2022-08-19T04:37:24;22.83;;;19.73;;
21564;SDS011;10943;48.738;9.320;2022-08-19T04:40:01;26.17;;;21.60;;
21564;SDS011;10943;48.738;9.320;2022-08-19T04:42:50;24.65;;;21.33;;
21564;SDS011;10943;48.738;9.320;2022-08-19T04:45:18;22.75;;;20.27;;
21564;SDS011;10943;48.738;9.320;2022-08-19T04:47:48;24.08;;;20.45;;
21564;SDS011;10943;48.738;9.320;2022-08-19T04:50:41;23.67;;;20.60;;
21564;SDS011;10943;48.738;9.320;2022-08-19T04:53:10;24.73;;;19.98;;
21564;SDS011;10943;48.738;9.320;2022-08-19T04:55:38;24.92;;;21.10;;
21564;SDS011;10943;48.738;9.320;2022-08-19T04:58:08;25.30;;;21.38;;
21564;SDS011;10943;48.738;9.320;2022-08-19T05:00:37;24.83;;;21.10;;
21564;SDS011;10943;48.738;9.320;2022-08-19T05:03:06;22.83;;;20.25;;
21564;SDS011;10943;48.738;9.320;2022-08-19T05:05:37;26.27;;;21.30;;
21564;SDS011;10943;48.738;9.320;2022-08-19T05:08:13;23.73;;;20.75;;
21564;SDS011;10943;48.738;9.320;2022-08-19T05:10:57;23.58;;;21.05;;
21564;SDS011;10943;48.738;9.320;2022-08-19T05:13:25;24.65;;;21.20;;
21564;SDS011;10943;48.738;9.320;2022-08-19T05:15:54;26.90;;;22.67;;
21564;SDS011;10943;48.738;9.320;2022-08-19T05:18:25;28.17;;;22.00;;
21564;SDS011;10943;48.738;9.320;2022-08-19T05:21:15;23.35;;;20.90;;
21564;SDS011;10943;48.738;9.320;2022-08-19T05:24:05;26.05;;;21.85;;
21564;SDS011;10943;48.738;9.320;2022-08-19T05:26:36;23.58;;;21.08;;
21564;SDS011;10943;48.738;9.320;2022-08-19T05:29:05;24.98;;;20.88;;
21564;SDS011;10943;48.738;9.320;2022-08-19T05:31:36;25.17;;;21.33;;
21564;SDS011;10943;48.738;9.320;2022-08-19T05:34:07;20.80;;;17.45;;
21564;SDS011;10943;48.738;9.320;2022-08-19T05:36:45;24.35;;;20.05;;
21564;SDS011;10943;48.738;9.320;2022-08-19T05:39:17;23.13;;;19.67;;
21564;SDS011;10943;48.738;9.320;2022-08-19T05:41:52;26.05;;;21.00;;
21564;SDS011;10943;48.738;9.320;2022-08-19T05:44:25;25.80;;;21.48;;
21564;SDS011;10943;48.738;9.320;2022-08-19T05:47:00;24.05;;;20.70;;
21564;SDS011;10943;48.738;9.320;2022-08-19T05:49:32;24.98;;;21.42;;
21564;SDS011;10943;48.738;9.320;2022-08-19T05:52:03;22.98;;;20.48;;
21564;SDS011;10943;48.738;9.320;2022-08-19T05:54:36;25.55;;;20.95;;
21564;SDS011;10943;48.738;9.320;2022-08-19T05:57:08;24.13;;;20.33;;
21564;SDS011;10943;48.738;9.320;2022-08-19T05:59:38;26.98;;;21.52;;
21564;SDS011;10943;48.738;9.320;2022-08-19T06:02:06;26.75;;;22.23;;
21564;SDS011;10943;48.738;9.320;2022-08-19T06:04:33;26.00;;;22.15;;
21564;SDS011;10943;48.738;9.320;2022-08-19T06:07:01;23.83;;;21.02;;
21564;SDS011;10943;48.738;9.320;2022-08-19T06:09:38;23.52;;;20.40;;
21564;SDS011;10943;48.738;9.320;2022-08-19T06:12:24;24.23;;;21.42;;
21564;SDS011;10943;48.738;9.320;2022-08-19T06:14:55;26.17;;;21.17;;
21564;SDS011;10943;48.738;9.320;2022-08-19T06:17:28;23.70;;;20.95;;
21564;SDS011;10943;48.738;9.320;2022-08-19T06:19:57;23.17;;;20.77;;
21564;SDS011;10943;48.738;9.320;2022-08-19T06:22:25;27.17;;;21.83;;
21564;SDS011;10943;48.738;9.320;2022-08-19T06:24:54;24.40;;;21.33;;
21564;SDS011;10943;48.738;9.320;2022-08-19T06:27:22;24.35;;;21.75;;
21564;SDS011;10943;48.738;9.320;2022-08-19T06:29:50;26.23;;;20.75;;
21564;SDS011;10943;48.738;9.320;2022-08-19T06:32:17;25.77;;;21.33;;
21564;SDS011;10943;48.738;9.320;2022-08-19T06:34:45;25.25;;;22.55;;
21564;SDS011;10943;48.738;9.320;2022-08-19T06:37:13;25.15;;;21.45;;
21564;SDS011;10943;48.738;9.320;2022-08-19T06:39:42;26.10;;;22.85;;
21564;SDS011;10943;48.738;9.320;2022-08-19T06:42:11;27.67;;;22.70;;
21564;SDS011;10943;48.738;9.320;2022-08-19T06:44:44;26.48;;;22.60;;
21564;SDS011;10943;48.738;9.320;2022-08-19T06:47:20;26.58;;;22.75;;
21564;SDS011;10943;48.738;9.320;2022-08-19T06:49:55;24.95;;;22.25;;
21564;SDS011;10943;48.738;9.320;2022-08-19T06:52:31;25.55;;;22.83;;
21564;SDS011;10943;48.738;9.320;2022-08-19T06:55:04;28.65;;;22.83;;
21564;SDS011;10943;48.738;9.320;2022-08-19T06:57:32;24.15;;;21.55;;
21564;SDS011;10943;48.738;9.320;2022-08-19T07:00:00;26.08;;;23.13;;
21564;SDS011;10943;48.738;9.320;2022-08-19T07:02:38;22.67;;;20.13;;
21564;SDS011;10943;48.738;9.320;2022-08-19T07:05:21;25.42;;;22.67;;
21564;SDS011;10943;48.738;9.320;2022-08-19T07:07:48;27.23;;;23.42;;
21564;SDS011;10943;48.738;9.320;2022-08-19T07:10:17;27.45;;;24.42;;
21564;SDS011;10943;48.738;9.320;2022-08-19T07:12:51;28.45;;;24.25;;
21564;SDS011;10943;48.738;9.320;2022-08-19T07:15:20;28.38;;;23.10;;
21564;SDS011;10943;48.738;9.320;2022-08-19T07:17:47;30.88;;;26.90;;
21564;SDS011;10943;48.738;9.320;2022-08-19T07:20:18;29.67;;;25.98;;
21564;SDS011;10943;48.738;9.320;2022-08-19T07:22:45;31.23;;;27.13;;
21564;SDS011;10943;48.738;9.320;2022-08-19T07:25:14;31.92;;;28.23;;
21564;SDS011;10943;48.738;9.320;2022-08-19T07:27:43;30.50;;;26.95;;
21564;SDS011;10943;48.738;9.320;2022-08-19T07:30:11;34.60;;;30.45;;
21564;SDS011;10943;48.738;9.320;2022-08-19T07:32:39;32.05;;;28.65;;
21564;SDS011;10943;48.738;9.320;2022-08-19T07:35:09;35.53;;;31.75;;
21564;SDS011;10943;48.738;9.320;2022-08-19T07:37:36;34.63;;;29.20;;
21564;SDS011;10943;48.738;9.320;2022-08-19T07:40:06;34.83;;;29.48;;
21564;SDS011;10943;48.738;9.320;2022-08-19T07:42:34;36.13;;;31.15;;
21564;SDS011;10943;48.738;9.320;2022-08-19T07:45:02;34.38;;;30.27;;
21564;SDS011;10943;48.738;9.320;2022-08-19T07:47:33;38.88;;;32.08;;
21564;SDS011;10943;48.738;9.320;2022-08-19T07:50:16;38.17;;;33.85;;
21564;SDS011;10943;48.738;9.320;2022-08-19T07:52:47;37.85;;;33.72;;
21564;SDS011;10943;48.738;9.320;2022-08-19T07:55:18;39.50;;;32.88;;
21564;SDS011;10943;48.738;9.320;2022-08-19T07:58:08;39.88;;;33.95;;
21564;SDS011;10943;48.738;9.320;2022-08-19T08:00:38;38.53;;;34.28;;
21564;SDS011;10943;48.738;9.320;2022-08-19T08:03:05;39.33;;;33.30;;
21564;SDS011;10943;48.738;9.320;2022-08-19T08:05:33;37.88;;;31.90;;
21564;SDS011;10943;48.738;9.320;2022-08-19T08:08:20;38.97;;;33.20;;
21564;SDS011;10943;48.738;9.320;2022-08-19T08:11:15;38.60;;;32.75;;
21564;SDS011;10943;48.738;9.320;2022-08-19T08:13:47;35.97;;;31.52;;
21564;SDS011;10943;48.738;9.320;2022-08-19T08:16:30;34.78;;;29.70;;
21564;SDS011;10943;48.738;9.320;2022-08-19T08:19:13;35.67;;;30.23;;
21564;SDS011;10943;48.738;9.320;2022-08-19T08:21:51;36.47;;;30.75;;
21564;SDS011;10943;48.738;9.320;2022-08-19T08:24:22;35.33;;;31.40;;
21564;SDS011;10943;48.738;9.320;2022-08-19T08:26:54;35.15;;;30.35;;
21564;SDS011;10943;48.738;9.320;2022-08-19T08:29:23;34.83;;;31.13;;
21564;SDS011;10943;48.738;9.320;2022-08-19T08:32:00;33.22;;;29.35;;
21564;SDS011;10943;48.738;9.320;2022-08-19T08:34:28;37.63;;;30.48;;
21564;SDS011;10943;48.738;9.320;2022-08-19T08:36:55;39.22;;;32.35;;
21564;SDS011;10943;48.738;9.320;2022-08-19T08:39:23;37.25;;;30.17;;
21564;SDS011;10943;48.738;9.320;2022-08-19T08:44:58;31.15;;;27.75;;
21564;SDS011;10943;48.738;9.320;2022-08-19T08:47:40;29.60;;;26.40;;
21564;SDS011;10943;48.738;9.320;2022-08-19T08:53:08;29.73;;;26.48;;
21564;SDS011;10943;48.738;9.320;2022-08-19T08:55:52;27.73;;;23.23;;
21564;SDS011;10943;48.738;9.320;2022-08-19T08:58:37;24.52;;;21.88;;
21564;SDS011;10943;48.738;9.320;2022-08-19T09:01:25;26.88;;;22.92;;
21564;SDS011;10943;48.738;9.320;2022-08-19T09:03:56;26.90;;;24.05;;
21564;SDS011;10943;48.738;9.320;2022-08-19T09:06:35;23.90;;;21.20;;
21564;SDS011;10943;48.738;9.320;2022-08-19T09:12:16;26.75;;;23.45;;
21564;SDS011;10943;48.738;9.320;2022-08-19T09:15:39;25.13;;;21.90;;
21564;SDS011;10943;48.738;9.320;2022-08-19T09:18:45;22.55;;;20.15;;
21564;SDS011;10943;48.738;9.320;2022-08-19T09:21:20;24.38;;;21.73;;
21564;SDS011;10943;48.738;9.320;2022-08-19T09:23:58;25.42;;;21.25;;
21564;SDS011;10943;48.738;9.320;2022-08-19T09:26:32;23.52;;;21.02;;
21564;SDS011;10943;48.738;9.320;2022-08-19T09:29:18;23.83;;;20.92;;
21564;SDS011;10943;48.738;9.320;2022-08-19T09:31:48;23.00;;;20.65;;
21564;SDS011;10943;48.738;9.320;2022-08-19T09:34:16;21.65;;;19.45;;
21564;SDS011;10943;48.738;9.320;2022-08-19T09:36:48;23.98;;;21.38;;
21564;SDS011;10943;48.738;9.320;2022-08-19T09:39:21;24.27;;;21.67;;
21564;SDS011;10943;48.738;9.320;2022-08-19T09:42:01;23.10;;;20.70;;
21564;SDS011;10943;48.738;9.320;2022-08-19T09:44:30;24.55;;;20.42;;
21564;SDS011;10943;48.738;9.320;2022-08-19T09:46:57;24.67;;;22.15;;
21564;SDS011;10943;48.738;9.320;2022-08-19T09:49:24;26.98;;;23.08;;
21564;SDS011;10943;48.738;9.320;2022-08-19T09:51:51;26.17;;;23.38;;
21564;SDS011;10943;48.738;9.320;2022-08-19T09:54:22;25.95;;;23.17;;
21564;SDS011;10943;48.738;9.320;2022-08-19T09:56:51;26.30;;;23.50;;
21564;SDS011;10943;48.738;9.320;2022-08-19T09:59:20;25.45;;;22.75;;
21564;SDS011;10943;48.738;9.320;2022-08-19T10:01:48;25.55;;;22.85;;
21564;SDS011;10943;48.738;9.320;2022-08-19T10:04:15;26.63;;;23.77;;
21564;SDS011;10943;48.738;9.320;2022-08-19T10:06:48;26.13;;;23.15;;
21564;SDS011;10943;48.738;9.320;2022-08-19T10:09:19;27.40;;;24.55;;
21564;SDS011;10943;48.738;9.320;2022-08-19T10:11:59;27.90;;;23.20;;
21564;SDS011;10943;48.738;9.320;2022-08-19T10:14:31;30.98;;;26.58;;
21564;SDS011;10943;48.738;9.320;2022-08-19T10:17:00;29.88;;;25.92;;
21564;SDS011;10943;48.738;9.320;2022-08-19T10:19:47;27.95;;;24.95;;
21564;SDS011;10943;48.738;9.320;2022-08-19T10:22:21;30.50;;;25.75;;
21564;SDS011;10943;48.738;9.320;2022-08-19T10:24:51;28.58;;;24.63;;
21564;SDS011;10943;48.738;9.320;2022-08-19T10:27:19;28.65;;;24.02;;
21564;SDS011;10943;48.738;9.320;2022-08-19T10:29:47;28.50;;;24.73;;
21564;SDS011;10943;48.738;9.320;2022-08-19T10:32:15;26.02;;;23.23;;
21564;SDS011;10943;48.738;9.320;2022-08-19T10:34:42;26.95;;;24.05;;
21564;SDS011;10943;48.738;9.320;2022-08-19T10:37:15;26.23;;;23.52;;
21564;SDS011;10943;48.738;9.320;2022-08-19T10:39:54;27.42;;;24.17;;
21564;SDS011;10943;48.738;9.320;2022-08-19T10:42:22;28.48;;;25.33;;
21564;SDS011;10943;48.738;9.320;2022-08-19T10:44:50;32.28;;;26.88;;
21564;SDS011;10943;48.738;9.320;2022-08-19T10:47:17;29.63;;;26.52;;
21564;SDS011;10943;48.738;9.320;2022-08-19T10:49:54;35.25;;;27.42;;
21564;SDS011;10943;48.738;9.320;2022-08-19T10:52:45;31.58;;;28.15;;
21564;SDS011;10943;48.738;9.320;2022-08-19T10:55:17;34.63;;;30.80;;
21564;SDS011;10943;48.738;9.320;2022-08-19T10:58:12;35.70;;;30.98;;
21564;SDS011;10943;48.738;9.320;2022-08-19T11:00:50;37.92;;;32.95;;
21564;SDS011;10943;48.738;9.320;2022-08-19T11:03:25;39.42;;;33.05;;
21564;SDS011;10943;48.738;9.320;2022-08-19T11:06:12;42.47;;;35.70;;
21564;SDS011;10943;48.738;9.320;2022-08-19T11:08:39;52.35;;;39.17;;
21564;SDS011;10943;48.738;9.320;2022-08-19T11:11:08;57.67;;;40.35;;
21564;SDS011;10943;48.738;9.320;2022-08-19T11:13:36;73.95;;;44.05;;
21564;SDS011;10943;48.738;9.320;2022-08-19T11:16:11;63.20;;;41.53;;
21564;SDS011;10943;48.738;9.320;2022-08-19T11:18:49;86.97;;;47.95;;
21564;SDS011;10943;48.738;9.320;2022-08-19T11:21:35;68.20;;;45.65;;
21564;SDS011;10943;48.738;9.320;2022-08-19T11:24:09;95.40;;;47.95;;
21564;SDS011;10943;48.738;9.320;2022-08-19T11:26:49;67.95;;;44.58;;
21564;SDS011;10943;48.738;9.320;2022-08-19T11:29:25;59.15;;;42.58;;
21564;SDS011;10943;48.738;9.320;2022-08-19T11:31:54;77.88;;;47.47;;
21564;SDS011;10943;48.738;9.320;2022-08-19T11:34:22;76.38;;;46.90;;
21564;SDS011;10943;48.738;9.320;2022-08-19T11:36:54;87.20;;;48.45;;
21564;SDS011;10943;48.738;9.320;2022-08-19T11:39:27;76.47;;;47.30;;
21564;SDS011;10943;48.738;9.320;2022-08-19T11:41:58;66.95;;;46.70;;
21564;SDS011;10943;48.738;9.320;2022-08-19T11:44:28;75.78;;;48.80;;
21564;SDS011;10943;48.738;9.320;2022-08-19T11:46:56;64.63;;;46.47;;
21564;SDS011;10943;48.738;9.320;2022-08-19T11:49:34;89.85;;;51.65;;
21564;SDS011;10943;48.738;9.320;2022-08-19T11:52:02;79.97;;;50.00;;
21564;SDS011;10943;48.738;9.320;2022-08-19T11:54:29;80.90;;;51.55;;
21564;SDS011;10943;48.738;9.320;2022-08-19T11:56:57;83.93;;;53.25;;
21564;SDS011;10943;48.738;9.320;2022-08-19T11:59:24;85.55;;;51.20;;
21564;SDS011;10943;48.738;9.320;2022-08-19T12:01:53;74.95;;;49.67;;
21564;SDS011;10943;48.738;9.320;2022-08-19T12:04:23;81.95;;;52.10;;
21564;SDS011;10943;48.738;9.320;2022-08-19T12:06:50;73.93;;;48.00;;
21564;SDS011;10943;48.738;9.320;2022-08-19T12:09:18;73.53;;;48.20;;
21564;SDS011;10943;48.738;9.320;2022-08-19T12:11:47;75.05;;;48.97;;
21564;SDS011;10943;48.738;9.320;2022-08-19T12:14:17;73.70;;;49.65;;
21564;SDS011;10943;48.738;9.320;2022-08-19T12:16:45;69.90;;;48.67;;
21564;SDS011;10943;48.738;9.320;2022-08-19T12:19:18;68.43;;;48.20;;
21564;SDS011;10943;48.738;9.320;2022-08-19T12:21:48;66.18;;;46.00;;
21564;SDS011;10943;48.738;9.320;2022-08-19T12:24:17;63.95;;;46.75;;
21564;SDS011;10943;48.738;9.320;2022-08-19T12:26:50;63.67;;;46.78;;
21564;SDS011;10943;48.738;9.320;2022-08-19T12:29:19;61.45;;;46.58;;
21564;SDS011;10943;48.738;9.320;2022-08-19T12:31:50;64.90;;;47.58;;
21564;SDS011;10943;48.738;9.320;2022-08-19T12:34:17;64.72;;;47.80;;
21564;SDS011;10943;48.738;9.320;2022-08-19T12:36:46;61.45;;;46.80;;
21564;SDS011;10943;48.738;9.320;2022-08-19T12:39:15;61.72;;;46.85;;
21564;SDS011;10943;48.738;9.320;2022-08-19T12:41:43;57.53;;;44.63;;
21564;SDS011;10943;48.738;9.320;2022-08-19T12:44:20;58.63;;;45.20;;
21564;SDS011;10943;48.738;9.320;2022-08-19T12:46:55;59.65;;;45.35;;
21564;SDS011;10943;48.738;9.320;2022-08-19T12:49:24;53.47;;;44.35;;
21564;SDS011;10943;48.738;9.320;2022-08-19T12:52:11;51.17;;;41.28;;
21564;SDS011;10943;48.738;9.320;2022-08-19T12:54:48;54.05;;;44.08;;
21564;SDS011;10943;48.738;9.320;2022-08-19T12:57:20;48.90;;;39.97;;
21564;SDS011;10943;48.738;9.320;2022-08-19T13:00:08;44.30;;;38.38;;
21564;SDS011;10943;48.738;9.320;2022-08-19T13:02:44;44.65;;;38.70;;
21564;SDS011;10943;48.738;9.320;2022-08-19T13:05:18;44.30;;;39.22;;
21564;SDS011;10943;48.738;9.320;2022-08-19T13:07:54;46.88;;;38.63;;
21564;SDS011;10943;48.738;9.320;2022-08-19T13:10:27;46.45;;;39.10;;
21564;SDS011;10943;48.738;9.320;2022-08-19T13:13:03;45.38;;;39.33;;
21564;SDS011;10943;48.738;9.320;2022-08-19T13:18:29;49.42;;;41.33;;
21564;SDS011;10943;48.738;9.320;2022-08-19T13:21:01;52.13;;;42.03;;
21564;SDS011;10943;48.738;9.320;2022-08-19T13:23:32;54.05;;;42.97;;
21564;SDS011;10943;48.738;9.320;2022-08-19T13:26:05;56.65;;;44.03;;
21564;SDS011;10943;48.738;9.320;2022-08-19T13:28:35;54.38;;;45.03;;
21564;SDS011;10943;48.738;9.320;2022-08-19T13:31:22;59.78;;;45.92;;
21564;SDS011;10943;48.738;9.320;2022-08-19T13:34:11;64.85;;;48.75;;
21564;SDS011;10943;48.738;9.320;2022-08-19T13:36:40;65.10;;;48.38;;
21564;SDS011;10943;48.738;9.320;2022-08-19T13:39:08;60.70;;;46.88;;
21564;SDS011;10943;48.738;9.320;2022-08-19T13:41:37;64.95;;;47.17;;
21564;SDS011;10943;48.738;9.320;2022-08-19T13:44:14;62.80;;;47.40;;
21564;SDS011;10943;48.738;9.320;2022-08-19T13:46:45;64.65;;;47.67;;
21564;SDS011;10943;48.738;9.320;2022-08-19T13:49:19;61.53;;;48.28;;
21564;SDS011;10943;48.738;9.320;2022-08-19T13:51:47;63.95;;;48.70;;
21564;SDS011;10943;48.738;9.320;2022-08-19T13:54:14;70.88;;;50.95;;
21564;SDS011;10943;48.738;9.320;2022-08-19T13:56:43;72.03;;;51.10;;
21564;SDS011;10943;48.738;9.320;2022-08-19T13:59:12;74.40;;;52.88;;
21564;SDS011;10943;48.738;9.320;2022-08-19T14:01:39;69.10;;;50.58;;
21564;SDS011;10943;48.738;9.320;2022-08-19T14:04:08;76.65;;;52.88;;
21564;SDS011;10943;48.738;9.320;2022-08-19T14:06:36;83.72;;;53.33;;
21564;SDS011;10943;48.738;9.320;2022-08-19T14:09:04;71.30;;;49.72;;
21564;SDS011;10943;48.738;9.320;2022-08-19T14:11:32;76.05;;;50.30;;
21564;SDS011;10943;48.738;9.320;2022-08-19T14:13:59;72.05;;;51.53;;
21564;SDS011;10943;48.738;9.320;2022-08-19T14:16:26;70.60;;;51.38;;
21564;SDS011;10943;48.738;9.320;2022-08-19T14:18:54;66.43;;;48.90;;
21564;SDS011;10943;48.738;9.320;2022-08-19T14:21:23;75.10;;;50.92;;
21564;SDS011;10943;48.738;9.320;2022-08-19T14:23:52;68.60;;;49.42;;
21564;SDS011;10943;48.738;9.320;2022-08-19T14:26:20;67.13;;;49.20;;
21564;SDS011;10943;48.738;9.320;2022-08-19T14:28:50;75.90;;;49.42;;
21564;SDS011;10943;48.738;9.320;2022-08-19T14:31:19;77.05;;;50.83;;
21564;SDS011;10943;48.738;9.320;2022-08-19T14:33:48;67.22;;;48.55;;
21564;SDS011;10943;48.738;9.320;2022-08-19T14:36:17;67.97;;;47.53;;
21564;SDS011;10943;48.738;9.320;2022-08-19T14:38:47;69.32;;;48.05;;
21564;SDS011;10943;48.738;9.320;2022-08-19T14:41:17;71.82;;;50.17;;
21564;SDS011;10943;48.738;9.320;2022-08-19T14:43:50;64.50;;;48.30;;
21564;SDS011;10943;48.738;9.320;2022-08-19T14:46:21;63.15;;;49.55;;
21564;SDS011;10943;48.738;9.320;2022-08-19T14:48:55;62.55;;;48.53;;
21564;SDS011;10943;48.738;9.320;2022-08-19T14:51:26;62.67;;;47.90;;
21564;SDS011;10943;48.738;9.320;2022-08-19T14:53:53;63.55;;;48.47;;
21564;SDS011;10943;48.738;9.320;2022-08-19T14:56:23;60.55;;;46.55;;
21564;SDS011;10943;48.738;9.320;2022-08-19T14:58:55;58.55;;;45.40;;
21564;SDS011;10943;48.738;9.320;2022-08-19T15:01:26;59.20;;;46.15;;
21564;SDS011;10943;48.738;9.320;2022-08-19T15:03:54;53.33;;;43.65;;
21564;SDS011;10943;48.738;9.320;2022-08-19T15:06:25;54.90;;;44.08;;